Time;durP1;ratioP1;P1;durP2;ratioP2;P2;SDS_P1;SDS_P2;PMS_P1;PMS_P2;Temp;Humidity;BMP_temperature;BMP_pressure;BME280_temperature;BME280_humidity;BME280_pressure;Samples;Min_cycle;Max_cycle;Signal;HPM_P1;HPM_P2
2021/05/06 00:31:15;;;;;;;1.90;1.40;;;;;;;;;;5033551;28;20422;-89
2021/05/06 00:33:42;;;;;;;1.27;1.17;;;5.10;99.90;;;;;;5033171;28;20516;-91
2021/05/06 00:36:08;;;;;;;4.97;1.90;;;5.20;99.90;;;;;;5033343;28;20440;-91
2021/05/06 00:38:41;;;;;;;1.47;1.37;;;5.10;99.90;;;;;;5032006;28;20802;-90
2021/05/06 00:41:19;;;;;;;3.13;1.97;;;;;;;;;;5033127;28;21005;-90
2021/05/06 00:44:06;;;;;;;1.10;1.00;;;5.20;99.90;;;;;;5031965;28;20558;-92
2021/05/06 00:46:51;;;;;;;1.10;0.90;;;;;;;;;;5033322;28;20830;-89
2021/05/06 00:54:59;;;;;;;3.93;1.63;;;5.20;99.90;;;;;;5033377;28;20438;-90
2021/05/06 00:57:32;;;;;;;0.80;0.80;;;4.90;99.90;;;;;;5032538;28;20947;-92
2021/05/06 01:02:57;;;;;;;2.20;1.67;;;;;;;;;;5016174;28;20440;-89
2021/05/06 01:05:28;;;;;;;2.00;1.30;;;;;;;;;;5033128;28;20483;-89
2021/05/06 01:08:02;;;;;;;3.80;1.60;;;5.10;99.90;;;;;;5033165;28;20497;-91
2021/05/06 01:10:41;;;;;;;1.83;1.27;;;4.80;99.90;;;;;;5033042;28;20451;-90
2021/05/06 01:13:08;;;;;;;3.63;1.57;;;4.80;99.90;;;;;;5032364;28;20455;-89
2021/05/06 01:15:34;;;;;;;1.17;0.80;;;5.60;99.90;;;;;;5033006;28;20483;-90
2021/05/06 01:18:01;;;;;;;2.17;1.27;;;4.70;99.90;;;;;;5014659;28;20455;-89
2021/05/06 01:20:28;;;;;;;3.40;1.50;;;;;;;;;;5032960;28;20462;-90
2021/05/06 01:22:55;;;;;;;1.17;0.77;;;5.10;99.90;;;;;;5033029;28;20459;-89
2021/05/06 01:25:22;;;;;;;0.50;0.37;;;;;;;;;;5032964;28;20452;-88
2021/05/06 01:27:57;;;;;;;1.10;1.00;;;;;;;;;;5031870;28;20966;-88
2021/05/06 01:30:30;;;;;;;2.70;1.10;;;5.10;99.90;;;;;;5032927;28;20446;-90
2021/05/06 01:33:06;;;;;;;2.70;1.73;;;4.90;99.90;;;;;;5032872;28;20439;-88
2021/05/06 01:35:37;;;;;;;0.77;0.53;;;;;;;;;;5032687;28;20508;-87
2021/05/06 01:38:18;;;;;;;1.63;1.47;;;5.30;99.90;;;;;;5032917;28;20793;-89
2021/05/06 01:43:45;;;;;;;3.03;0.77;;;5.40;99.90;;;;;;5007850;28;20447;-89
2021/05/06 01:49:19;;;;;;;6.53;2.30;;;5.90;99.90;;;;;;5029812;28;20981;-89
2021/05/06 01:57:59;;;;;;;2.07;1.37;;;;;;;;;;5027504;28;20442;-87
2021/05/06 02:00:28;;;;;;;3.37;2.07;;;5.00;99.90;;;;;;5024347;28;20496;-87
2021/05/06 02:03:00;;;;;;;5.30;1.70;;;;;;;;;;5024480;28;21112;-88
2021/05/06 02:05:33;;;;;;;0.90;0.80;;;;;;;;;;5026339;28;20843;-86
2021/05/06 02:08:01;;;;;;;3.17;1.40;;;;;;;;;;5023503;28;20484;-90
2021/05/06 02:10:29;;;;;;;2.60;1.37;;;5.40;99.90;;;;;;5029449;28;20959;-87
2021/05/06 02:13:00;;;;;;;3.20;1.93;;;5.50;99.90;;;;;;5023120;28;20581;-89
2021/05/06 02:15:29;;;;;;;3.40;2.00;;;;;;;;;;5024221;28;20938;-90
2021/05/06 02:17:58;;;;;;;1.50;1.40;;;5.60;99.90;;;;;;5030656;28;20483;-91
2021/05/06 02:20:26;;;;;;;3.73;1.80;;;;;;;;;;5024378;28;20439;-90
2021/05/06 02:22:54;;;;;;;4.30;1.97;;;5.50;99.90;;;;;;5023646;28;20445;-92
2021/05/06 02:25:21;;;;;;;2.33;1.50;;;5.30;99.90;;;;;;5021681;28;20452;-91
2021/05/06 02:27:49;;;;;;;1.57;0.77;;;5.60;99.90;;;;;;5014889;28;20957;-89
2021/05/06 02:30:16;;;;;;;1.17;1.07;;;5.30;99.90;;;;;;5015912;28;21096;-91
2021/05/06 02:32:43;;;;;;;1.67;1.10;;;;;;;;;;5015745;28;20502;-89
2021/05/06 02:35:10;;;;;;;3.60;2.07;;;5.30;99.90;;;;;;5018128;28;20943;-89
2021/05/06 02:37:36;;;;;;;3.93;1.80;;;;;;;;;;5017368;28;20448;-89
2021/05/06 02:40:04;;;;;;;3.30;1.70;;;5.50;99.90;;;;;;5017209;28;20460;-90
2021/05/06 02:42:31;;;;;;;3.17;1.93;;;;;;;;;;5016301;28;20468;-90
2021/05/06 02:44:58;;;;;;;3.90;1.43;;;5.10;99.90;;;;;;5015718;28;20441;-90
2021/05/06 02:47:24;;;;;;;2.87;1.40;;;5.10;99.90;;;;;;5015834;28;20468;-89
2021/05/06 02:49:51;;;;;;;2.50;1.70;;;5.30;99.90;;;;;;5015048;28;20499;-91
2021/05/06 02:52:23;;;;;;;2.57;1.37;;;;;;;;;;5014262;28;20956;-89
2021/05/06 02:54:54;;;;;;;3.33;1.50;;;;;;;;;;5015615;28;20451;-90
2021/05/06 02:57:25;;;;;;;4.10;1.60;;;5.20;99.90;;;;;;5014744;28;20448;-88
2021/05/06 03:02:49;;;;;;;3.83;1.57;;;5.10;99.90;;;;;;5015271;28;20482;-89
2021/05/06 03:05:16;;;;;;;1.57;1.23;;;5.40;99.90;;;;;;5014554;28;20483;-90
2021/05/06 03:07:47;;;;;;;0.97;0.77;;;;;;;;;;5015005;28;20507;-89
2021/05/06 03:10:30;;;;;;;4.17;2.13;;;5.20;99.90;;;;;;5015283;28;21045;-90
2021/05/06 03:13:24;;;;;;;2.43;1.70;;;;;;;;;;5014118;28;20537;-89
2021/05/06 03:22:40;;;;;;;4.03;2.30;;;;;;;;;;4973413;28;20449;-89
2021/05/06 03:24:28;;;;;;;6.53;2.33;;;4.80;99.90;;;;;;5012087;28;20487;-88
2021/05/06 03:26:55;;;;;;;4.70;2.53;;;;;;;;;;5013421;28;20519;-88
2021/05/06 03:29:26;;;;;;;3.90;2.23;;;;;;;;;;5014415;28;20531;-88
2021/05/06 03:32:07;;;;;;;5.60;1.77;;;4.30;99.90;;;;;;5014284;28;20463;-86
2021/05/06 03:42:56;;;;;;;4.37;2.37;;;;;;;;;;5013175;28;20786;-85
2021/05/06 03:45:40;;;;;;;4.67;1.93;;;4.00;99.90;;;;;;5014299;28;20448;-88
2021/05/06 04:16:01;;;;;;;3.67;2.23;;;4.50;99.90;;;;;;5013089;28;20486;-89
2021/05/06 04:18:29;;;;;;;4.60;2.70;;;4.00;99.90;;;;;;5013917;28;20464;-91
2021/05/06 04:26:44;;;;;;;6.93;2.30;;;;;;;;;;4941307;29;20818;-86
2021/05/06 04:37:29;;;;;;;5.33;2.80;;;4.70;99.90;;;;;;4989462;28;20781;-88
2021/05/06 04:39:58;;;;;;;10.10;2.30;;;4.10;99.90;;;;;;5024378;28;20506;-86
2021/05/06 04:56:14;;;;;;;7.00;2.80;;;4.20;99.90;;;;;;4987798;28;20491;-87
2021/05/06 05:04:12;;;;;;;6.43;2.77;;;;;;;;;;5033077;28;20442;-90
2021/05/06 05:06:41;;;;;;;3.63;1.97;;;;;;;;;;5032953;28;20452;-87
2021/05/06 05:09:25;;;;;;;2.70;2.50;;;;;;;;;;5032958;28;20494;-92
2021/05/06 05:11:55;;;;;;;3.07;2.50;;;4.70;99.90;;;;;;5031972;28;20483;-88
2021/05/06 05:25:31;;;;;;;7.90;3.27;;;4.70;99.90;;;;;;4972359;28;20468;-91
2021/05/06 05:27:59;;;;;;;3.23;2.00;;;4.40;99.90;;;;;;5010265;28;20523;-89
2021/05/06 05:30:27;;;;;;;4.57;3.27;;;4.80;99.90;;;;;;5036834;28;20458;-88
2021/05/06 05:32:54;;;;;;;3.40;2.13;;;;;;;;;;5036185;28;20455;-90
2021/05/06 05:35:31;;;;;;;3.90;2.20;;;4.80;99.90;;;;;;5036367;28;20439;-89
2021/05/06 05:38:04;;;;;;;4.20;2.37;;;5.10;99.90;;;;;;5036651;28;20500;-88
2021/05/06 05:40:35;;;;;;;4.30;2.53;;;5.20;99.90;;;;;;5036582;28;20471;-91
2021/05/06 05:43:09;;;;;;;2.97;2.03;;;5.00;99.90;;;;;;5035254;28;21126;-89
2021/05/06 05:56:55;;;;;;;7.50;2.27;;;;;;;;;;5036390;28;20682;-90
2021/05/06 05:59:23;;;;;;;4.10;1.83;;;5.40;99.90;;;;;;5036427;28;20439;-89
2021/05/06 06:01:52;;;;;;;3.70;2.17;;;5.20;99.90;;;;;;5036233;28;20443;-90
2021/05/06 06:04:19;;;;;;;2.50;2.30;;;;;;;;;;5035419;28;20478;-91
2021/05/06 06:06:46;;;;;;;3.83;2.10;;;;;;;;;;5037420;28;20480;-91
2021/05/06 06:09:12;;;;;;;2.73;1.50;;;;;;;;;;5038091;28;20491;-91
2021/05/06 06:11:39;;;;;;;3.83;2.40;;;;;;;;;;5038100;28;20451;-90
2021/05/06 06:14:07;;;;;;;5.73;2.23;;;;;;;;;;5039290;28;20462;-89
2021/05/06 06:16:36;;;;;;;5.47;2.07;;;5.60;99.90;;;;;;5037706;28;20459;-91
2021/05/06 06:19:03;;;;;;;4.63;1.90;;;5.50;99.90;;;;;;5038995;28;20447;-92
2021/05/06 06:21:33;;;;;;;3.70;1.67;;;5.70;99.90;;;;;;5036210;28;20927;-92
2021/05/06 06:24:00;;;;;;;3.00;1.80;;;;;;;;;;5037902;28;20529;-90
2021/05/06 06:26:27;;;;;;;4.97;2.03;;;5.60;99.90;;;;;;5037605;28;20463;-91
2021/05/06 06:28:56;;;;;;;6.30;1.87;;;;;;;;;;5037326;28;20491;-91
2021/05/06 06:31:25;;;;;;;3.03;2.00;;;;;;;;;;5033105;28;20481;-91
2021/05/06 06:33:52;;;;;;;1.87;1.50;;;6.20;99.90;;;;;;5020279;28;20453;-91
2021/05/06 06:36:19;;;;;;;3.40;1.83;;;;;;;;;;5029450;28;20431;-92
2021/05/06 06:38:45;;;;;;;5.10;2.10;;;;;;;;;;5037592;28;20451;-90
2021/05/06 06:41:13;;;;;;;1.67;1.43;;;;;;;;;;5037419;28;20833;-90
2021/05/06 06:43:40;;;;;;;6.83;2.23;;;;;;;;;;5037609;28;20458;-89
2021/05/06 06:46:07;;;;;;;3.43;1.80;;;6.10;99.90;;;;;;5037478;28;20440;-92
2021/05/06 06:48:33;;;;;;;4.87;1.87;;;6.10;99.90;;;;;;5036286;28;20475;-91
2021/05/06 06:51:00;;;;;;;3.93;1.97;;;5.90;99.90;;;;;;5035013;28;20439;-91
2021/05/06 06:53:28;;;;;;;7.27;2.00;;;6.00;99.90;;;;;;5036122;28;20458;-92
2021/05/06 06:55:54;;;;;;;3.57;1.60;;;;;;;;;;5037079;28;20444;-91
2021/05/06 06:58:21;;;;;;;3.67;1.87;;;;;;;;;;5036486;28;20943;-91
2021/05/06 07:00:48;;;;;;;7.23;1.93;;;;;;;;;;5036604;28;20452;-90
2021/05/06 07:03:15;;;;;;;6.63;2.43;;;;;;;;;;5036965;28;20934;-95
2021/05/06 07:05:42;;;;;;;4.30;1.63;;;;;;;;;;5037399;28;20484;-92
2021/05/06 07:08:17;;;;;;;4.30;2.70;;;6.70;99.90;;;;;;5036385;28;20456;-89
2021/05/06 07:10:44;;;;;;;2.03;1.80;;;6.60;99.90;;;;;;5036719;28;20442;-91
2021/05/06 07:13:11;;;;;;;1.90;1.40;;;7.10;99.90;;;;;;5036083;28;20435;-91
2021/05/06 07:15:38;;;;;;;3.70;2.20;;;6.70;99.90;;;;;;5036772;28;20448;-93
2021/05/06 07:18:07;;;;;;;11.60;2.63;;;6.80;99.90;;;;;;5037878;28;20478;-91
2021/05/06 07:20:33;;;;;;;2.97;1.33;;;6.90;99.90;;;;;;5036680;28;20459;-90
2021/05/06 07:23:00;;;;;;;1.27;0.90;;;;;;;;;;5036308;28;20527;-92
2021/05/06 07:25:27;;;;;;;5.37;2.30;;;7.10;99.90;;;;;;5036142;28;20493;-91
2021/05/06 07:27:54;;;;;;;6.90;2.27;;;;;;;;;;5033847;28;20455;-92
2021/05/06 07:30:21;;;;;;;2.50;1.83;;;;;;;;;;5036751;28;20854;-88
2021/05/06 07:32:48;;;;;;;3.07;2.00;;;;;;;;;;5035416;28;20447;-89
2021/05/06 07:35:15;;;;;;;8.30;2.07;;;;;;;;;;5035616;28;20439;-90
2021/05/06 07:37:41;;;;;;;5.70;2.10;;;;;;;;;;5035952;28;20444;-89
2021/05/06 07:40:14;;;;;;;2.40;1.60;;;7.90;99.90;;;;;;5037944;28;20463;-91
2021/05/06 07:42:41;;;;;;;4.70;2.10;;;8.10;99.90;;;;;;5035723;28;20491;-89
2021/05/06 07:45:08;;;;;;;7.10;2.10;;;8.20;99.90;;;;;;5037533;28;20452;-87
2021/05/06 07:47:35;;;;;;;3.13;2.20;;;8.30;99.90;;;;;;5036227;28;20451;-87
2021/05/06 07:50:01;;;;;;;1.80;1.60;;;9.00;99.90;;;;;;5033644;28;20490;-93
2021/05/06 07:52:28;;;;;;;2.17;1.97;;;9.50;99.90;;;;;;5032040;28;20514;-90
2021/05/06 07:54:55;;;;;;;2.90;1.97;;;9.10;99.90;;;;;;5035802;28;20463;-89
2021/05/06 07:57:22;;;;;;;3.70;1.60;;;8.60;99.90;;;;;;5039395;28;20451;-89
2021/05/06 07:59:49;;;;;;;5.83;2.30;;;9.00;99.90;;;;;;5030237;28;20443;-89
2021/05/06 08:02:16;;;;;;;1.80;1.40;;;8.90;99.90;;;;;;5040725;28;20942;-92
2021/05/06 08:04:42;;;;;;;6.50;1.67;;;8.70;99.90;;;;;;5041393;22;20492;-87
2021/05/06 08:07:09;;;;;;;1.63;1.50;;;8.40;99.90;;;;;;5017879;28;20499;-89
2021/05/06 08:09:35;;;;;;;7.83;2.03;;;8.30;99.90;;;;;;4954789;28;20538;-94
2021/05/06 08:12:03;;;;;;;4.67;2.70;;;8.00;99.90;;;;;;4954728;29;20455;-85
2021/05/06 08:14:29;;;;;;;2.87;1.33;;;8.40;99.90;;;;;;4957561;29;20478;-91
2021/05/06 08:16:57;;;;;;;4.80;2.40;;;8.10;99.90;;;;;;4955252;29;20458;-94
2021/05/06 08:19:24;;;;;;;5.10;1.80;;;;;;;;;;4957287;29;20506;-92
2021/05/06 08:21:51;;;;;;;3.77;1.67;;;;;;;;;;4956573;29;20451;-91
2021/05/06 08:24:17;;;;;;;2.40;1.83;;;;;;;;;;4956939;28;20517;-86
2021/05/06 08:26:44;;;;;;;4.77;2.40;;;;;;;;;;4961317;28;20480;-88
2021/05/06 08:29:10;;;;;;;4.33;2.10;;;8.60;99.90;;;;;;5015532;28;20519;-90
2021/05/06 08:31:36;;;;;;;5.20;2.20;;;;;;;;;;5011653;28;20460;-88
2021/05/06 08:34:04;;;;;;;3.57;2.13;;;8.90;99.90;;;;;;5011081;28;20929;-92
2021/05/06 08:36:30;;;;;;;7.07;2.37;;;8.30;99.90;;;;;;5008601;28;20955;-87
2021/05/06 08:38:56;;;;;;;5.60;2.40;;;8.50;99.90;;;;;;5014977;28;20468;-88
2021/05/06 08:41:23;;;;;;;5.37;2.00;;;8.70;99.90;;;;;;5013282;28;20448;-90
2021/05/06 08:43:54;;;;;;;3.37;1.63;;;8.70;99.90;;;;;;5013838;28;20502;-88
2021/05/06 08:46:20;;;;;;;1.90;1.80;;;8.70;99.90;;;;;;5015153;28;20463;-87
2021/05/06 08:48:48;;;;;;;4.03;1.97;;;8.70;99.90;;;;;;5014050;28;20473;-87
2021/05/06 08:51:16;;;;;;;8.70;2.27;;;8.40;99.90;;;;;;4996162;28;20457;-87
2021/05/06 08:53:44;;;;;;;4.03;2.10;;;8.80;99.90;;;;;;4996344;28;20457;-91
2021/05/06 08:56:11;;;;;;;11.53;2.37;;;;;;;;;;4995570;28;20448;-88
2021/05/06 08:58:37;;;;;;;3.83;2.13;;;8.70;99.90;;;;;;4994398;28;20461;-89
2021/05/06 09:01:04;;;;;;;3.10;1.90;;;;;;;;;;4996661;28;20450;-90
2021/05/06 09:03:30;;;;;;;8.33;2.80;;;;;;;;;;4983036;28;20485;-89
2021/05/06 09:06:18;;;;;;;4.53;1.90;;;8.70;99.90;;;;;;4979291;28;20481;-89
2021/05/06 09:08:49;;;;;;;7.47;2.20;;;8.70;99.90;;;;;;4986049;28;20908;-89
2021/05/06 09:11:16;;;;;;;5.23;1.90;;;8.70;99.90;;;;;;4978827;28;20465;-90
2021/05/06 09:13:43;;;;;;;4.47;2.30;;;8.60;99.90;;;;;;4998716;28;20473;-89
2021/05/06 09:16:09;;;;;;;4.70;2.13;;;8.40;99.90;;;;;;4998697;28;20549;-89
2021/05/06 09:18:38;;;;;;;9.27;2.33;;;8.60;99.90;;;;;;4997347;28;20862;-88
2021/05/06 09:21:05;;;;;;;5.10;2.10;;;;;;;;;;4998354;28;20441;-87
2021/05/06 09:23:33;;;;;;;6.90;2.07;;;8.70;99.90;;;;;;4998040;28;20452;-87
2021/05/06 09:26:04;;;;;;;3.37;1.80;;;8.00;99.90;;;;;;4998168;28;20911;-88
2021/05/06 09:28:32;;;;;;;2.40;1.83;;;8.40;99.90;;;;;;5000492;28;20496;-93
2021/05/06 09:31:02;;;;;;;3.70;1.40;;;8.40;99.90;;;;;;4997800;28;20441;-91
2021/05/06 09:33:30;;;;;;;4.03;2.30;;;8.30;99.90;;;;;;4999126;28;20456;-89
2021/05/06 09:35:58;;;;;;;6.03;2.20;;;8.60;99.90;;;;;;5000300;28;20453;-91
2021/05/06 09:38:29;;;;;;;5.23;2.83;;;8.40;99.90;;;;;;5000192;28;20540;-87
2021/05/06 09:41:00;;;;;;;2.70;1.97;;;8.60;99.90;;;;;;4999081;28;20445;-91
2021/05/06 09:43:30;;;;;;;4.57;1.97;;;8.50;99.90;;;;;;4998290;28;20931;-92
2021/05/06 09:45:57;;;;;;;6.17;2.10;;;;;;;;;;4998216;28;20445;-90
2021/05/06 09:48:31;;;;;;;5.73;2.47;;;8.40;99.90;;;;;;5037543;28;21024;-87
2021/05/06 09:50:59;;;;;;;2.80;1.93;;;8.40;99.90;;;;;;5038048;28;20455;-90
2021/05/06 09:53:29;;;;;;;5.50;2.57;;;8.40;99.90;;;;;;5036512;28;21008;-89
2021/05/06 09:55:57;;;;;;;8.53;2.70;;;8.20;99.90;;;;;;5037785;28;20443;-90
2021/05/06 09:58:28;;;;;;;9.83;2.73;;;8.20;99.90;;;;;;5037322;28;20447;-90
2021/05/06 10:00:55;;;;;;;5.33;2.30;;;8.40;99.90;;;;;;5038037;28;20486;-90
2021/05/06 10:03:25;;;;;;;6.43;2.37;;;8.20;99.90;;;;;;5061367;28;20446;-92
2021/05/06 10:05:52;;;;;;;7.37;2.70;;;8.50;99.90;;;;;;5057239;28;20489;-89
2021/05/06 10:08:19;;;;;;;4.33;2.10;;;;;;;;;;5055466;28;20465;-87
2021/05/06 10:10:45;;;;;;;3.97;1.80;;;8.20;99.90;;;;;;5057671;28;20466;-89
2021/05/06 10:13:12;;;;;;;4.23;1.53;;;8.00;99.90;;;;;;5056690;28;20442;-90
2021/05/06 10:15:40;;;;;;;0.70;0.60;;;8.00;99.90;;;;;;5058225;28;20454;-88
2021/05/06 10:18:08;;;;;;;3.70;2.07;;;8.00;99.90;;;;;;5059029;28;20934;-89
2021/05/06 10:20:35;;;;;;;5.10;2.00;;;8.10;99.90;;;;;;5057701;28;20443;-92
2021/05/06 10:23:03;;;;;;;4.17;2.13;;;7.80;99.90;;;;;;5045599;28;20444;-88
2021/05/06 10:25:30;;;;;;;3.23;2.30;;;8.20;99.90;;;;;;5038539;28;20454;-91
2021/05/06 10:27:56;;;;;;;1.73;1.40;;;8.10;99.90;;;;;;5038289;28;20457;-90
2021/05/06 10:30:25;;;;;;;4.00;1.67;;;7.80;99.90;;;;;;5039221;28;20506;-89
2021/05/06 10:32:55;;;;;;;2.10;1.00;;;8.00;99.90;;;;;;5044971;28;20435;-87
2021/05/06 10:35:25;;;;;;;9.00;5.87;;;7.80;99.90;;;;;;5058885;28;20954;-91
2021/05/06 10:37:56;;;;;;;4.13;1.63;;;8.00;99.90;;;;;;5058514;28;20458;-89
2021/05/06 10:40:31;;;;;;;2.50;1.90;;;7.90;99.90;;;;;;5057684;28;20450;-88
2021/05/06 10:43:16;;;;;;;2.77;1.83;;;8.00;99.90;;;;;;5059657;28;20492;-87
2021/05/06 10:45:54;;;;;;;1.60;0.80;;;7.90;99.90;;;;;;5061104;28;20454;-92
2021/05/06 10:48:20;;;;;;;3.13;1.33;;;;;;;;;;5060509;28;20457;-92
2021/05/06 10:50:47;;;;;;;4.63;1.10;;;7.90;99.90;;;;;;5058163;28;20482;-89
2021/05/06 10:53:26;;;;;;;2.57;1.50;;;7.90;99.90;;;;;;5057906;28;20934;-89
2021/05/06 10:55:54;;;;;;;3.30;2.00;;;8.00;99.90;;;;;;5059709;28;20445;-89
2021/05/06 10:58:39;;;;;;;3.77;2.20;;;8.00;99.90;;;;;;5032199;28;20458;-84
2021/05/06 11:01:18;;;;;;;2.67;2.13;;;7.90;99.90;;;;;;5033759;28;20471;-86
2021/05/06 11:03:47;;;;;;;58.63;29.47;;;;;;;;;;5035275;28;20498;-88
2021/05/06 11:06:39;;;;;;;3.43;1.73;;;8.10;99.90;;;;;;4986758;28;20483;-91
2021/05/06 11:09:39;;;;;;;2.97;2.00;;;8.60;99.90;;;;;;5033583;28;20475;-89
2021/05/06 11:12:28;;;;;;;3.40;1.70;;;8.60;99.90;;;;;;5032139;28;20476;-91
2021/05/06 11:15:37;;;;;;;1.93;1.47;;;8.40;99.90;;;;;;5035284;28;20487;-88
2021/05/06 11:18:06;;;;;;;3.70;2.00;;;8.70;99.90;;;;;;5057899;28;20514;-90
2021/05/06 11:20:55;;;;;;;2.30;1.30;;;8.90;99.90;;;;;;5057468;28;20447;-90
2021/05/06 11:23:39;;;;;;;2.33;1.40;;;8.60;99.90;;;;;;5058061;28;20443;-91
2021/05/06 11:26:16;;;;;;;1.37;1.00;;;8.70;99.90;;;;;;5057825;28;20451;-89
2021/05/06 11:28:47;;;;;;;0.77;0.53;;;8.30;99.90;;;;;;5056521;28;20840;-88
2021/05/06 11:31:15;;;;;;;1.30;0.93;;;8.60;99.90;;;;;;5057146;28;20851;-89
2021/05/06 11:33:43;;;;;;;2.10;1.10;;;8.60;99.90;;;;;;5056771;28;20549;-89
2021/05/06 11:36:14;;;;;;;1.40;1.10;;;8.60;99.90;;;;;;5057349;28;20438;-88
2021/05/06 11:38:51;;;;;;;0.70;0.70;;;8.70;99.90;;;;;;5058132;28;20451;-88
2021/05/06 11:41:22;;;;;;;0.83;0.50;;;8.80;99.90;;;;;;5058121;28;20454;-90
2021/05/06 11:43:50;;;;;;;4.10;2.07;;;9.20;99.90;;;;;;5057547;28;20475;-89
2021/05/06 11:46:17;;;;;;;3.77;0.87;;;8.90;99.90;;;;;;5055337;28;20526;-88
2021/05/06 11:48:46;;;;;;;0.73;0.73;;;8.50;99.90;;;;;;5056145;28;20475;-89
2021/05/06 11:51:27;;;;;;;1.00;0.63;;;8.90;99.90;;;;;;5056165;28;20462;-87
2021/05/06 11:54:11;;;;;;;4.80;0.67;;;8.90;99.90;;;;;;5058174;28;20453;-90
2021/05/06 11:56:39;;;;;;;0.80;0.67;;;8.90;99.90;;;;;;5059072;28;20451;-91
2021/05/06 11:59:06;;;;;;;1.77;1.10;;;9.00;99.90;;;;;;5056776;28;20465;-89
2021/05/06 12:01:33;;;;;;;2.40;1.60;;;9.00;99.90;;;;;;5057535;28;20452;-90
2021/05/06 12:04:00;;;;;;;1.47;1.10;;;9.10;99.90;;;;;;5057539;28;20439;-90
2021/05/06 12:06:31;;;;;;;1.00;0.57;;;8.80;99.90;;;;;;5053969;28;20481;-91
2021/05/06 12:08:58;;;;;;;0.80;0.60;;;8.30;99.90;;;;;;5055543;28;20543;-90
2021/05/06 12:11:35;;;;;;;0.90;0.70;;;8.90;99.90;;;;;;5057576;28;20534;-89
2021/05/06 12:14:01;;;;;;;2.50;1.10;;;;;;;;;;5055827;28;20969;-90
2021/05/06 12:16:28;;;;;;;0.93;0.60;;;;;;;;;;5056642;28;20434;-89
2021/05/06 12:18:57;;;;;;;0.97;0.77;;;8.80;99.90;;;;;;5056992;28;20446;-90
2021/05/06 12:21:33;;;;;;;1.83;0.77;;;8.60;99.90;;;;;;5057696;28;20484;-90
2021/05/06 12:24:00;;;;;;;1.50;0.97;;;;;;;;;;5055577;28;20481;-92
2021/05/06 12:26:27;;;;;;;0.90;0.87;;;8.70;99.90;;;;;;5056855;28;20802;-89
2021/05/06 12:28:54;;;;;;;0.87;0.87;;;;;;;;;;5049790;28;20553;-92
2021/05/06 12:31:21;;;;;;;1.60;1.00;;;;;;;;;;5037165;28;21019;-89
2021/05/06 12:33:47;;;;;;;1.17;1.07;;;9.00;99.90;;;;;;5037709;28;20950;-93
2021/05/06 12:36:15;;;;;;;1.23;0.90;;;;;;;;;;5034547;28;20459;-91
2021/05/06 12:38:43;;;;;;;1.73;1.10;;;8.60;99.90;;;;;;5037751;28;20431;-92
2021/05/06 12:41:10;;;;;;;1.80;1.20;;;8.60;99.90;;;;;;5033385;28;20919;-91
2021/05/06 12:43:49;;;;;;;0.90;0.90;;;8.60;99.90;;;;;;5040158;28;20459;-91
2021/05/06 12:46:21;;;;;;;1.10;1.00;;;8.60;99.90;;;;;;5040625;28;20455;-90
2021/05/06 12:48:58;;;;;;;1.37;0.83;;;8.60;99.90;;;;;;5035443;28;20475;-90
2021/05/06 12:51:30;;;;;;;2.33;0.83;;;8.40;99.90;;;;;;5033869;28;20439;-89
2021/05/06 12:53:59;;;;;;;1.50;1.20;;;8.50;99.90;;;;;;5033586;28;21016;-90
2021/05/06 12:56:28;;;;;;;4.17;1.10;;;8.50;99.90;;;;;;5034421;28;20436;-90
2021/05/06 12:58:54;;;;;;;2.20;1.37;;;8.50;99.90;;;;;;5033101;28;20486;-92
2021/05/06 13:01:30;;;;;;;2.63;1.23;;;8.10;99.90;;;;;;5034060;28;20501;-90
2021/05/06 13:04:01;;;;;;;1.07;0.90;;;8.20;99.90;;;;;;5033772;28;20435;-88
2021/05/06 13:06:35;;;;;;;1.47;1.10;;;8.20;99.90;;;;;;5032697;28;20513;-91
2021/05/06 13:09:12;;;;;;;2.70;1.10;;;8.10;99.90;;;;;;5033273;28;20518;-91
2021/05/06 13:11:39;;;;;;;1.53;1.03;;;;;;;;;;5032976;28;20508;-88
2021/05/06 13:14:05;;;;;;;2.50;1.50;;;;;;;;;;5032753;28;20819;-89
2021/05/06 13:16:45;;;;;;;2.30;1.43;;;8.00;99.90;;;;;;5033051;28;20443;-89
2021/05/06 13:19:14;;;;;;;1.67;1.23;;;8.00;99.90;;;;;;5033294;28;20440;-89
2021/05/06 13:21:47;;;;;;;1.90;1.10;;;7.60;99.90;;;;;;5033274;28;20443;-89
2021/05/06 13:24:15;;;;;;;1.40;1.30;;;7.30;99.90;;;;;;5032861;28;20472;-89
2021/05/06 13:26:43;;;;;;;1.20;1.03;;;7.70;99.90;;;;;;5037981;28;20810;-89
2021/05/06 13:29:13;;;;;;;2.27;1.70;;;7.90;99.90;;;;;;5032859;28;21004;-88
2021/05/06 13:31:40;;;;;;;25.03;16.50;;;7.80;99.90;;;;;;5032470;28;20837;-88
2021/05/06 13:34:13;;;;;;;10.03;4.27;;;7.90;99.90;;;;;;5032789;28;20454;-89
2021/05/06 13:36:40;;;;;;;209.43;119.03;;;8.10;99.90;;;;;;5033792;28;20965;-88
2021/05/06 13:39:08;;;;;;;2.77;2.17;;;7.90;99.90;;;;;;5036408;28;20455;-89
2021/05/06 13:41:36;;;;;;;2.50;1.43;;;8.00;99.90;;;;;;5040844;28;20458;-87
2021/05/06 13:44:04;;;;;;;66.60;39.60;;;8.00;99.90;;;;;;5037451;28;20656;-87
2021/05/06 13:46:33;;;;;;;25.97;18.13;;;8.00;99.90;;;;;;5036773;28;20501;-87
2021/05/06 13:48:59;;;;;;;48.80;28.27;;;7.90;99.90;;;;;;5037500;28;20510;-89
2021/05/06 13:51:27;;;;;;;30.43;19.07;;;8.20;99.90;;;;;;5038389;28;20458;-88
2021/05/06 13:53:54;;;;;;;18.50;12.47;;;;;;;;;;5042645;28;20463;-88
2021/05/06 13:56:22;;;;;;;13.20;8.40;;;8.30;99.90;;;;;;5039139;28;20506;-89
2021/05/06 13:58:50;;;;;;;32.47;22.43;;;8.60;99.90;;;;;;5038939;28;20482;-88
2021/05/06 14:01:17;;;;;;;30.07;23.93;;;8.40;99.90;;;;;;5039405;28;20458;-88
2021/05/06 14:03:43;;;;;;;22.67;17.77;;;8.10;99.90;;;;;;5039438;28;20456;-89
2021/05/06 14:06:10;;;;;;;4.40;2.87;;;;;;;;;;5038610;28;20486;-87
2021/05/06 14:08:36;;;;;;;6.27;2.97;;;8.20;99.90;;;;;;5039648;28;20459;-87
2021/05/06 14:11:04;;;;;;;5.07;2.53;;;8.20;99.90;;;;;;5039132;28;20452;-86
2021/05/06 14:13:31;;;;;;;3.20;2.40;;;;;;;;;;5037611;28;20938;-86
2021/05/06 14:15:59;;;;;;;2.30;1.40;;;7.90;99.90;;;;;;5039716;28;20896;-87
2021/05/06 14:18:25;;;;;;;25.70;19.40;;;8.30;99.90;;;;;;5038235;28;20466;-87
2021/05/06 14:20:53;;;;;;;1.03;0.93;;;7.80;99.90;;;;;;5038528;28;20450;-87
2021/05/06 14:23:22;;;;;;;1.83;1.37;;;8.10;99.90;;;;;;5038316;28;20609;-87
2021/05/06 14:25:48;;;;;;;3.53;1.63;;;;;;;;;;5036717;28;20445;-87
2021/05/06 14:28:15;;;;;;;1.40;1.10;;;7.70;99.90;;;;;;5036688;28;21132;-88
2021/05/06 14:30:41;;;;;;;2.53;2.33;;;7.80;99.90;;;;;;5038153;28;20498;-88
2021/05/06 14:33:08;;;;;;;16.67;10.90;;;7.80;99.90;;;;;;5038895;28;20461;-87
2021/05/06 14:35:35;;;;;;;15.50;12.30;;;;;;;;;;5038117;28;20491;-88
2021/05/06 14:38:02;;;;;;;6.57;3.07;;;8.10;99.90;;;;;;5038792;28;20942;-88
2021/05/06 14:40:29;;;;;;;3.40;1.70;;;7.90;99.90;;;;;;5037638;28;20448;-88
2021/05/06 14:42:55;;;;;;;2.83;1.20;;;8.00;99.90;;;;;;5037009;28;20446;-87
2021/05/06 14:45:22;;;;;;;47.80;24.10;;;;;;;;;;5037971;28;20930;-88
2021/05/06 14:47:48;;;;;;;3.87;2.40;;;;;;;;;;5038333;28;20458;-89
2021/05/06 14:50:16;;;;;;;3.07;1.37;;;7.90;99.90;;;;;;5037411;28;20491;-86
2021/05/06 14:52:43;;;;;;;3.70;2.03;;;7.60;99.90;;;;;;5038413;28;20471;-89
2021/05/06 14:55:12;;;;;;;2.30;0.93;;;7.60;99.90;;;;;;5037217;28;20451;-87
2021/05/06 14:57:39;;;;;;;1.00;0.90;;;;;;;;;;5041015;28;20448;-87
2021/05/06 15:00:07;;;;;;;26.63;19.37;;;7.90;99.90;;;;;;5035834;28;20454;-88
2021/05/06 15:02:34;;;;;;;7.77;4.73;;;8.10;99.90;;;;;;5037655;28;20448;-89
2021/05/06 15:05:01;;;;;;;1.17;0.90;;;7.80;99.90;;;;;;5037206;28;20487;-86
2021/05/06 15:07:28;;;;;;;13.63;6.40;;;7.90;99.90;;;;;;5036633;28;20815;-87
2021/05/06 15:09:54;;;;;;;1.30;1.20;;;7.60;99.90;;;;;;5044519;28;20556;-86
2021/05/06 15:12:20;;;;;;;5.20;1.20;;;7.70;99.90;;;;;;5035904;28;20460;-87
2021/05/06 15:14:47;;;;;;;3.23;1.93;;;;;;;;;;5036809;28;20966;-88
2021/05/06 15:17:14;;;;;;;1.73;0.80;;;;;;;;;;5037931;28;20442;-88
2021/05/06 15:19:40;;;;;;;2.40;1.90;;;;;;;;;;5038034;28;20455;-86
2021/05/06 15:22:07;;;;;;;2.33;1.20;;;7.60;99.90;;;;;;5037419;28;20468;-88
2021/05/06 15:24:34;;;;;;;2.70;2.07;;;8.00;99.90;;;;;;5037189;28;20444;-87
2021/05/06 15:27:00;;;;;;;6.37;4.77;;;7.90;99.90;;;;;;5036637;28;20526;-87
2021/05/06 15:29:27;;;;;;;30.63;22.43;;;7.70;99.90;;;;;;5036981;28;20479;-88
2021/05/06 15:31:54;;;;;;;1.93;1.30;;;;;;;;;;5036888;28;20510;-86
2021/05/06 15:34:20;;;;;;;62.53;41.03;;;8.10;99.90;;;;;;5037200;28;21155;-86
2021/05/06 15:36:47;;;;;;;5.57;3.80;;;;;;;;;;5037265;28;20452;-88
2021/05/06 15:39:13;;;;;;;44.17;33.43;;;8.10;99.90;;;;;;5036365;28;20463;-86
2021/05/06 15:41:40;;;;;;;69.07;47.50;;;8.10;99.90;;;;;;5036246;28;20901;-86
2021/05/06 15:44:07;;;;;;;1.80;1.53;;;7.50;99.90;;;;;;5036138;28;20451;-85
2021/05/06 15:46:34;;;;;;;6.73;3.03;;;8.30;99.90;;;;;;5035647;28;20455;-86
2021/05/06 15:49:02;;;;;;;4.37;2.87;;;;;;;;;;5035644;28;20455;-85
2021/05/06 15:51:29;;;;;;;21.60;14.23;;;8.00;99.90;;;;;;5034150;28;20474;-86
2021/05/06 15:53:56;;;;;;;13.03;11.87;;;;;;;;;;5034817;28;20446;-86
2021/05/06 15:56:23;;;;;;;4.53;1.50;;;8.00;99.90;;;;;;5034599;28;20444;-87
2021/05/06 15:58:52;;;;;;;16.47;8.93;;;8.20;99.90;;;;;;5035279;28;20451;-87
2021/05/06 16:01:19;;;;;;;31.80;17.70;;;8.00;99.90;;;;;;5035538;28;20917;-86
2021/05/06 16:03:46;;;;;;;32.67;19.57;;;8.10;99.90;;;;;;5034353;28;20451;-87
2021/05/06 16:06:13;;;;;;;21.47;13.20;;;8.20;99.90;;;;;;5034907;28;20494;-88